Time;durP1;ratioP1;P1;durP2;ratioP2;P2;SDS_P1;SDS_P2;PMS_P1;PMS_P2;Temp;Humidity;BMP_temperature;BMP_pressure;BME280_temperature;BME280_humidity;BME280_pressure;Samples;Min_cycle;Max_cycle;Signal;HPM_P1;HPM_P2
2023/03/11 00:01:06;;;;;;;;;;;;;;;;;;4999634;28;19914;-83
2023/03/11 00:03:31;;;;;;;;;;;;;;;;;;5000111;28;19910;-83
2023/03/11 00:05:59;;;;;;;;;;;;;;;;;;5000915;28;20270;-83
2023/03/11 00:08:24;;;;;;;;;;;;;;;;;;5001511;28;19964;-83
2023/03/11 00:10:51;;;;;;;;;;;;;;;;;;5003936;28;19910;-83
2023/03/11 00:13:16;;;;;;;;;;;;;;;;;;5003149;28;19916;-81
2023/03/11 00:15:43;;;;;;;;;;;;;;;;;;5003391;28;19910;-84
2023/03/11 00:18:08;;;;;;;;;;;;;;;;;;5004622;28;20018;-83
2023/03/11 00:20:34;;;;;;;;;;;;;;;;;;5005012;28;19921;-83
2023/03/11 00:23:00;;;;;;;;;;;;;;;;;;5004654;28;19924;-85
2023/03/11 00:25:27;;;;;;;;;;;;;;;;;;5004274;28;19909;-84
2023/03/11 00:27:52;;;;;;;;;;;;;;;;;;5004655;28;19948;-83
2023/03/11 00:30:18;;;;;;;;;;;;;;;;;;5003512;28;20361;-83
2023/03/11 00:32:44;;;;;;;;;;;;;;;;;;5004050;28;19909;-83
2023/03/11 00:35:13;;;;;;;;;;;;;;;;;;5003525;28;19910;-82
2023/03/11 00:37:38;;;;;;;;;;;;;;;;;;5004712;28;20045;-84
2023/03/11 00:40:07;;;;;;;;;;;;;;;;;;5005529;28;19910;-82
2023/03/11 00:42:32;;;;;;;;;;;;;;;;;;5005116;28;20004;-81
2023/03/11 00:44:58;;;;;;;;;;;;;;;;;;5004386;28;19910;-83
2023/03/11 00:47:23;;;;;;;;;;;;;;;;;;5003845;28;19909;-84
2023/03/11 00:49:48;;;;;;;;;;;;;;;;;;5004420;28;19910;-83
2023/03/11 00:52:13;;;;;;;;;;;;;;;;;;5005692;28;19932;-83
2023/03/11 00:54:38;;;;;;;;;;;;;;;;;;5003801;28;19909;-84
2023/03/11 00:57:06;;;;;;;;;;;;;;;;;;5004505;28;19916;-84
2023/03/11 00:59:32;;;;;;;;;;;;;;;;;;5004519;28;19917;-82
2023/03/11 01:01:58;;;;;;;;;;;;;;;;;;5003406;28;19918;-83
2023/03/11 01:04:23;;;;;;;;;;;;;;;;;;5002472;28;20360;-83
2023/03/11 01:06:48;;;;;;;;;;;;;;;;;;5001952;28;20323;-85
2023/03/11 01:09:13;;;;;;;;;;;;;;;;;;5005709;28;19909;-84
2023/03/11 01:11:38;;;;;;;;;;;;;;;;;;5002261;28;20377;-83
2023/03/11 01:14:03;;;;;;;;;;;;;;;;;;5002859;28;19910;-83
2023/03/11 01:16:29;;;;;;;;;;;;;;;;;;5003384;28;19910;-83
2023/03/11 01:18:54;;;;;;;;;;;;;;;;;;5002333;28;19957;-83
2023/03/11 01:21:20;;;;;;;;;;;;;;;;;;5001606;28;19921;-83
2023/03/11 01:23:45;;;;;;;;;;;;;;;;;;5003072;28;20284;-83
2023/03/11 01:26:10;;;;;;;;;;;;;;;;;;5002411;28;19909;-83
2023/03/11 01:28:36;;;;;;;;;;;;;;;;;;5002168;28;20364;-82
2023/03/11 01:31:01;;;;;;;;;;;;;;;;;;5002346;28;19909;-83
2023/03/11 01:33:27;;;;;;;;;;;;;;;;;;5003294;28;19909;-83
2023/03/11 01:35:53;;;;;;;;;;;;;;;;;;5005770;28;19909;-82
2023/03/11 01:38:18;;;;;;;;;;;;;;;;;;5002542;28;20004;-83
2023/03/11 01:40:45;;;;;;;;;;;;;;;;;;5003327;28;19914;-83
2023/03/11 01:43:29;;;;;;;;;;;;;;;;;;5002521;28;19909;-83
2023/03/11 01:45:54;;;;;;;;;;;;;;;;;;5003248;28;19909;-83
2023/03/11 01:48:19;;;;;;;;;;;;;;;;;;5002244;28;20285;-83
2023/03/11 01:50:48;;;;;;;;;;;;;;;;;;5001901;28;19910;-82
2023/03/11 01:53:14;;;;;;;;;;;;;;;;;;5001980;28;19941;-83
2023/03/11 01:55:40;;;;;;;;;;;;;;;;;;5002263;28;19957;-84
2023/03/11 01:58:07;;;;;;;;;;;;;;;;;;5004001;28;19917;-84
2023/03/11 02:00:33;;;;;;;;;;;;;;;;;;5003056;28;20289;-83
2023/03/11 02:03:00;;;;;;;;;;;;;;;;;;5003664;28;19913;-84
2023/03/11 02:05:25;;;;;;;;;;;;;;;;;;5002886;28;19910;-83
2023/03/11 02:07:51;;;;;;;;;;;;;;;;;;5001502;28;19932;-84
2023/03/11 02:10:17;;;;;;;;;;;;;;;;;;4999211;28;19910;-82
2023/03/11 02:12:44;;;;;;;;;;;;;;;;;;4996613;28;19910;-82
2023/03/11 02:15:09;;;;;;;;;;;;;;;;;;4998032;28;20285;-84
2023/03/11 02:17:35;;;;;;;;;;;;;;;;;;4998954;28;19937;-82
2023/03/11 02:20:00;;;;;;;;;;;;;;;;;;4998233;28;19914;-81
2023/03/11 02:22:28;;;;;;;;;;;;;;;;;;4999101;28;19936;-83
2023/03/11 02:24:54;;;;;;;;;;;;;;;;;;5002138;28;19948;-82
2023/03/11 02:27:20;;;;;;;;;;;;;;;;;;4997503;28;20324;-81
2023/03/11 02:29:48;;;;;;;;;;;;;;;;;;5000140;28;19913;-83
2023/03/11 02:32:13;;;;;;;;;;;;;;;;;;4997807;28;19913;-83
2023/03/11 02:34:39;;;;;;;;;;;;;;;;;;4998277;28;19968;-84
2023/03/11 02:37:06;;;;;;;;;;;;;;;;;;4999004;28;19909;-83
2023/03/11 02:39:35;;;;;;;;;;;;;;;;;;4998052;28;19969;-83
2023/03/11 02:42:03;;;;;;;;;;;;;;;;;;4998005;28;19941;-82
2023/03/11 02:44:28;;;;;;;;;;;;;;;;;;4999688;28;19914;-82
2023/03/11 02:46:54;;;;;;;;;;;;;;;;;;4997903;28;20293;-83
2023/03/11 02:49:19;;;;;;;;;;;;;;;;;;4999674;28;19910;-83
2023/03/11 02:51:44;;;;;;;;;;;;;;;;;;4998960;28;19910;-84
2023/03/11 02:54:10;;;;;;;;;;;;;;;;;;4999488;28;19914;-84
2023/03/11 02:56:35;;;;;;;;;;;;;;;;;;4998679;28;19964;-82
2023/03/11 02:59:00;;;;;;;;;;;;;;;;;;4999065;28;19909;-81
2023/03/11 03:01:26;;;;;;;;;;;;;;;;;;4999255;28;19949;-81
2023/03/11 03:03:51;;;;;;;;;;;;;;;;;;4997314;28;20369;-83
2023/03/11 03:06:16;;;;;;;;;;;;;;;;;;5000351;28;20422;-83
2023/03/11 03:08:41;;;;;;;;;;;;;;;;;;4999862;28;19910;-83
2023/03/11 03:11:06;;;;;;;;;;;;;;;;;;5000568;28;19935;-83
2023/03/11 03:13:32;;;;;;;;;;;;;;;;;;4999716;28;20436;-82
2023/03/11 03:15:57;;;;;;;;;;;;;;;;;;5000487;28;19917;-81
2023/03/11 03:18:22;;;;;;;;;;;;;;;;;;4999401;28;19909;-82
2023/03/11 03:20:47;;;;;;;;;;;;;;;;;;4998686;28;19921;-83
2023/03/11 03:23:13;;;;;;;;;;;;;;;;;;4999855;28;20391;-82
2023/03/11 03:25:41;;;;;;;;;;;;;;;;;;4998396;28;19910;-82
2023/03/11 03:28:06;;;;;;;;;;;;;;;;;;5000785;28;19956;-83
2023/03/11 03:30:31;;;;;;;;;;;;;;;;;;5000074;28;19909;-80
2023/03/11 03:32:56;;;;;;;;;;;;;;;;;;4999517;28;19916;-83
2023/03/11 03:35:21;;;;;;;;;;;;;;;;;;4999339;28;19989;-82
2023/03/11 03:37:47;;;;;;;;;;;;;;;;;;5000097;28;20028;-81
2023/03/11 03:40:12;;;;;;;;;;;;;;;;;;5000701;28;20000;-82
2023/03/11 03:42:38;;;;;;;;;;;;;;;;;;4999452;28;19924;-83
2023/03/11 03:45:05;;;;;;;;;;;;;;;;;;5004021;28;19909;-83
2023/03/11 03:47:31;;;;;;;;;;;;;;;;;;5001930;28;19917;-82
2023/03/11 03:49:56;;;;;;;;;;;;;;;;;;5002757;28;19909;-81
2023/03/11 03:52:21;;;;;;;;;;;;;;;;;;5003041;28;20418;-81
2023/03/11 03:54:46;;;;;;;;;;;;;;;;;;5001897;28;20440;-83
2023/03/11 03:57:11;;;;;;;;;;;;;;;;;;5003554;28;19917;-84
2023/03/11 03:59:37;;;;;;;;;;;;;;;;;;5002432;28;20475;-82
2023/03/11 04:02:02;;;;;;;;;;;;;;;;;;5001547;28;19914;-84
2023/03/11 04:04:27;;;;;;;;;;;;;;;;;;5002780;28;20073;-82
2023/03/11 04:06:52;;;;;;;;;;;;;;;;;;5002154;28;19913;-82
2023/03/11 04:09:18;;;;;;;;;;;;;;;;;;5002695;28;19914;-83
2023/03/11 04:11:43;;;;;;;;;;;;;;;;;;5001408;28;19959;-81
2023/03/11 04:14:08;;;;;;;;;;;;;;;;;;5003264;28;19956;-84
2023/03/11 04:16:33;;;;;;;;;;;;;;;;;;5002918;28;19910;-82
2023/03/11 04:18:59;;;;;;;;;;;;;;;;;;5002672;28;20296;-82
2023/03/11 04:21:24;;;;;;;;;;;;;;;;;;5002111;28;20288;-82
2023/03/11 04:23:49;;;;;;;;;;;;;;;;;;5002546;28;19909;-83
2023/03/11 04:26:14;;;;;;;;;;;;;;;;;;5001325;28;20262;-82
2023/03/11 04:28:39;;;;;;;;;;;;;;;;;;5003483;28;20392;-82
2023/03/11 04:31:05;;;;;;;;;;;;;;;;;;5002511;28;19909;-83
2023/03/11 04:33:30;;;;;;;;;;;;;;;;;;5001364;28;19910;-83
2023/03/11 04:35:55;;;;;;;;;;;;;;;;;;5001646;28;20027;-83
2023/03/11 04:38:20;;;;;;;;;;;;;;;;;;5002817;28;19916;-83
2023/03/11 04:40:46;;;;;;;;;;;;;;;;;;5001661;28;19933;-83
2023/03/11 04:43:11;;;;;;;;;;;;;;;;;;5001016;28;20344;-83
2023/03/11 04:45:39;;;;;;;;;;;;;;;;;;5003435;28;20341;-83
2023/03/11 04:48:04;;;;;;;;;;;;;;;;;;5002358;28;20365;-83
2023/03/11 04:50:30;;;;;;;;;;;;;;;;;;5002281;28;19916;-85
2023/03/11 04:52:55;;;;;;;;;;;;;;;;;;5001228;28;19917;-83
2023/03/11 04:55:21;;;;;;;;;;;;;;;;;;5002121;28;19910;-84
2023/03/11 04:57:46;;;;;;;;;;;;;;;;;;5002029;28;19917;-84
2023/03/11 05:00:11;;;;;;;;;;;;;;;;;;5001451;28;19910;-84
2023/03/11 05:02:38;;;;;;;;;;;;;;;;;;5000743;28;20004;-84
2023/03/11 05:05:03;;;;;;;;;;;;;;;;;;4999778;28;20360;-85
2023/03/11 05:07:28;;;;;;;;;;;;;;;;;;4999892;28;19910;-83
2023/03/11 05:09:53;;;;;;;;;;;;;;;;;;4999386;28;19959;-83
2023/03/11 05:12:19;;;;;;;;;;;;;;;;;;5000496;28;19909;-82
2023/03/11 05:14:44;;;;;;;;;;;;;;;;;;5000478;28;19917;-84
2023/03/11 05:17:11;;;;;;;;;;;;;;;;;;5001244;28;20438;-83
2023/03/11 05:19:36;;;;;;;;;;;;;;;;;;4999436;28;19909;-82
2023/03/11 05:22:02;;;;;;;;;;;;;;;;;;5000821;28;20017;-82
2023/03/11 05:24:28;;;;;;;;;;;;;;;;;;4999652;28;19909;-82
2023/03/11 05:26:53;;;;;;;;;;;;;;;;;;5002752;28;19917;-84
2023/03/11 05:29:19;;;;;;;;;;;;;;;;;;5000446;28;20012;-85
2023/03/11 05:31:44;;;;;;;;;;;;;;;;;;5001513;28;19917;-84
2023/03/11 05:34:09;;;;;;;;;;;;;;;;;;5001522;28;19909;-83
2023/03/11 05:36:34;;;;;;;;;;;;;;;;;;5002118;28;19940;-83
2023/03/11 05:38:59;;;;;;;;;;;;;;;;;;5003065;28;19916;-84
2023/03/11 05:41:25;;;;;;;;;;;;;;;;;;5003757;28;20004;-83
2023/03/11 05:43:50;;;;;;;;;;;;;;;;;;5001252;28;20269;-83
2023/03/11 05:46:15;;;;;;;;;;;;;;;;;;4999994;28;19918;-84
2023/03/11 05:48:43;;;;;;;;;;;;;;;;;;4999578;28;19910;-83
2023/03/11 05:51:09;;;;;;;;;;;;;;;;;;4998128;28;19913;-84
2023/03/11 05:53:34;;;;;;;;;;;;;;;;;;4999618;28;19917;-83
2023/03/11 05:56:00;;;;;;;;;;;;;;;;;;4999488;28;19910;-84
2023/03/11 05:58:25;;;;;;;;;;;;;;;;;;4999325;28;19910;-83
2023/03/11 06:00:51;;;;;;;;;;;;;;;;;;5000000;28;19917;-83
2023/03/11 06:03:16;;;;;;;;;;;;;;;;;;4998302;28;20329;-81
2023/03/11 06:05:45;;;;;;;;;;;;;;;;;;4998145;28;19996;-83
2023/03/11 06:08:10;;;;;;;;;;;;;;;;;;5002279;28;19916;-84
2023/03/11 06:10:35;;;;;;;;;;;;;;;;;;5003880;28;19909;-82
2023/03/11 06:13:00;;;;;;;;;;;;;;;;;;5002054;28;19910;-85
2023/03/11 06:15:25;;;;;;;;;;;;;;;;;;5003310;28;19910;-84
2023/03/11 06:17:51;;;;;;;;;;;;;;;;;;5003994;28;19916;-84
2023/03/11 06:20:16;;;;;;;;;;;;;;;;;;5002835;28;19914;-85
2023/03/11 06:22:41;;;;;;;;;;;;;;;;;;5002235;28;19918;-85
2023/03/11 06:25:07;;;;;;;;;;;;;;;;;;5002495;28;19941;-84
2023/03/11 06:27:32;;;;;;;;;;;;;;;;;;5003006;28;19910;-84
2023/03/11 06:29:57;;;;;;;;;;;;;;;;;;5003429;28;19957;-82
2023/03/11 06:32:22;;;;;;;;;;;;;;;;;;5002147;28;20009;-85
2023/03/11 06:34:51;;;;;;;;;;;;;;;;;;5002373;28;19918;-83
2023/03/11 06:37:17;;;;;;;;;;;;;;;;;;5002871;28;19932;-84
2023/03/11 06:39:42;;;;;;;;;;;;;;;;;;5004557;28;20373;-84
2023/03/11 06:42:11;;;;;;;;;;;;;;;;;;5004724;28;19925;-83
2023/03/11 06:44:36;;;;;;;;;;;;;;;;;;5002360;28;20008;-83
2023/03/11 06:47:01;;;;;;;;;;;;;;;;;;5003550;28;19909;-82
2023/03/11 06:49:26;;;;;;;;;;;;;;;;;;5003208;28;19964;-84
2023/03/11 06:51:52;;;;;;;;;;;;;;;;;;5002895;28;19916;-82
2023/03/11 06:54:17;;;;;;;;;;;;;;;;;;5004671;28;20065;-84
2023/03/11 06:56:42;;;;;;;;;;;;;;;;;;5002142;28;19910;-84
2023/03/11 06:59:07;;;;;;;;;;;;;;;;;;5002163;28;19914;-83
2023/03/11 07:01:32;;;;;;;;;;;;;;;;;;5002058;28;19918;-84
2023/03/11 07:03:58;;;;;;;;;;;;;;;;;;5003009;28;19994;-84
2023/03/11 07:06:24;;;;;;;;;;;;;;;;;;5003362;28;19948;-84
2023/03/11 07:08:50;;;;;;;;;;;;;;;;;;5002907;28;19916;-83
2023/03/11 07:11:17;;;;;;;;;;;;;;;;;;5002898;28;19910;-84
2023/03/11 07:13:49;;;;;;;;;;;;;;;;;;5003011;28;19910;-83
2023/03/11 07:16:19;;;;;;;;;;;;;;;;;;5001870;28;20400;-82
2023/03/11 07:18:45;;;;;;;;;;;;;;;;;;5005105;28;19910;-84
2023/03/11 07:21:12;;;;;;;;;;;;;;;;;;5006724;28;19917;-84
2023/03/11 07:23:37;;;;;;;;;;;;;;;;;;5007024;28;19910;-85
2023/03/11 07:26:03;;;;;;;;;;;;;;;;;;5007394;28;19942;-84
2023/03/11 07:28:29;;;;;;;;;;;;;;;;;;5007493;28;20296;-83
2023/03/11 07:30:54;;;;;;;;;;;;;;;;;;5006026;28;19917;-83
2023/03/11 07:33:21;;;;;;;;;;;;;;;;;;5005516;28;19909;-84
2023/03/11 07:35:48;;;;;;;;;;;;;;;;;;5005983;28;19909;-84
2023/03/11 07:38:13;;;;;;;;;;;;;;;;;;5007957;28;19910;-83
2023/03/11 07:40:38;;;;;;;;;;;;;;;;;;5008570;28;19969;-84
2023/03/11 07:43:03;;;;;;;;;;;;;;;;;;5008005;28;19916;-84
2023/03/11 07:45:28;;;;;;;;;;;;;;;;;;5011165;28;19909;-84
2023/03/11 07:47:54;;;;;;;;;;;;;;;;;;5007427;28;19916;-83
2023/03/11 07:50:21;;;;;;;;;;;;;;;;;;5006164;28;19916;-83
2023/03/11 07:52:47;;;;;;;;;;;;;;;;;;5007209;28;19910;-83
2023/03/11 07:55:12;;;;;;;;;;;;;;;;;;5002811;28;19933;-84
2023/03/11 07:57:37;;;;;;;;;;;;;;;;;;5003923;28;19921;-83
2023/03/11 08:00:03;;;;;;;;;;;;;;;;;;5003530;28;19916;-82
2023/03/11 08:02:28;;;;;;;;;;;;;;;;;;5002105;28;19918;-83
2023/03/11 08:04:54;;;;;;;;;;;;;;;;;;5003159;28;19909;-83
2023/03/11 08:07:19;;;;;;;;;;;;;;;;;;5003738;28;19916;-84
2023/03/11 08:09:45;;;;;;;;;;;;;;;;;;5004899;28;19909;-83
2023/03/11 08:12:10;;;;;;;;;;;;;;;;;;5004268;28;19910;-84
2023/03/11 08:14:35;;;;;;;;;;;;;;;;;;5004997;28;19916;-84
2023/03/11 08:17:00;;;;;;;;;;;;;;;;;;5003710;28;19969;-83
2023/03/11 08:19:25;;;;;;;;;;;;;;;;;;5003667;28;19910;-83
2023/03/11 08:21:51;;;;;;;;;;;;;;;;;;5002748;28;19924;-83
2023/03/11 08:24:16;;;;;;;;;;;;;;;;;;5004629;28;20324;-83
2023/03/11 08:26:41;;;;;;;;;;;;;;;;;;5002262;28;19916;-82
2023/03/11 08:29:07;;;;;;;;;;;;;;;;;;5003369;28;19910;-82
2023/03/11 08:31:32;;;;;;;;;;;;;;;;;;5002376;28;19964;-85
2023/03/11 08:33:59;;;;;;;;;;;;;;;;;;5004182;28;19925;-84
2023/03/11 08:36:25;;;;;;;;;;;;;;;;;;5004423;28;20004;-83
2023/03/11 08:38:50;;;;;;;;;;;;;;;;;;5002227;28;19952;-82
2023/03/11 08:41:15;;;;;;;;;;;;;;;;;;5003636;28;20380;-83
2023/03/11 08:43:41;;;;;;;;;;;;;;;;;;5003418;28;19910;-83
2023/03/11 08:46:06;;;;;;;;;;;;;;;;;;5003735;28;20001;-85
2023/03/11 08:48:32;;;;;;;;;;;;;;;;;;5003450;28;19940;-83
2023/03/11 08:50:58;;;;;;;;;;;;;;;;;;5002308;28;19936;-82
2023/03/11 08:53:23;;;;;;;;;;;;;;;;;;5004660;28;19910;-84
2023/03/11 08:55:49;;;;;;;;;;;;;;;;;;5005578;28;19937;-84
2023/03/11 08:58:14;;;;;;;;;;;;;;;;;;5002990;28;19933;-84
2023/03/11 09:00:39;;;;;;;;;;;;;;;;;;5004048;28;19916;-84
2023/03/11 09:03:04;;;;;;;;;;;;;;;;;;5005567;28;20420;-82
2023/03/11 09:05:29;;;;;;;;;;;;;;;;;;5003568;28;19909;-83
2023/03/11 09:07:54;;;;;;;;;;;;;;;;;;5001349;28;19909;-80
2023/03/11 09:10:20;;;;;;;;;;;;;;;;;;5003213;28;19910;-81
2023/03/11 09:12:45;;;;;;;;;;;;;;;;;;5002261;28;19909;-82
2023/03/11 09:15:10;;;;;;;;;;;;;;;;;;5001653;28;19916;-82
2023/03/11 09:17:35;;;;;;;;;;;;;;;;;;5002258;28;19974;-81
2023/03/11 09:20:01;;;;;;;;;;;;;;;;;;5000793;28;19921;-83
2023/03/11 09:22:26;;;;;;;;;;;;;;;;;;5001793;28;19925;-82
2023/03/11 09:24:52;;;;;;;;;;;;;;;;;;5000357;28;19909;-83
2023/03/11 09:27:17;;;;;;;;;;;;;;;;;;5002735;28;19973;-84
2023/03/11 09:29:42;;;;;;;;;;;;;;;;;;5001826;28;19910;-82
2023/03/11 09:32:11;;;;;;;;;;;;;;;;;;5000304;28;20424;-81
2023/03/11 09:34:36;;;;;;;;;;;;;;;;;;5000165;28;20018;-83
2023/03/11 09:37:01;;;;;;;;;;;;;;;;;;5000054;28;19991;-81
2023/03/11 09:39:26;;;;;;;;;;;;;;;;;;5000980;28;20384;-83
2023/03/11 09:42:00;;;;;;;;;;;;;;;;;;5000474;28;19914;-83
2023/03/11 09:44:35;;;;;;;;;;;;;;;;;;5000786;28;20395;-83
2023/03/11 09:47:30;;;;;;;;;;;;;;;;;;5000213;28;19956;-82
2023/03/11 09:50:21;;;;;;;;;;;;;;;;;;4987622;28;19909;-84
2023/03/11 09:52:49;;;;;;;;;;;;;;;;;;4996204;28;19910;-82
2023/03/11 09:55:47;;;;;;;;;;;;;;;;;;4999191;28;19964;-82
2023/03/11 09:58:16;;;;;;;;;;;;;;;;;;4967244;28;19917;-82
2023/03/11 10:00:42;;;;;;;;;;;;;;;;;;4999113;28;19933;-82
2023/03/11 10:03:13;;;;;;;;;;;;;;;;;;4999791;28;20393;-83
2023/03/11 10:05:40;;;;;;;;;;;;;;;;;;5000947;28;19913;-83
2023/03/11 10:08:26;;;;;;;;;;;;;;;;;;5002326;28;19917;-83
2023/03/11 10:10:58;;;;;;;;;;;;;;;;;;4993288;28;19917;-84
2023/03/11 10:13:32;;;;;;;;;;;;;;;;;;5002925;28;19917;-83
2023/03/11 10:16:02;;;;;;;;;;;;;;;;;;5004263;28;19910;-82
2023/03/11 10:18:46;;;;;;;;;;;;;;;;;;5002508;28;19981;-83
2023/03/11 10:21:12;;;;;;;;;;;;;;;;;;5010900;28;19918;-84
2023/03/11 10:23:46;;;;;;;;;;;;;;;;;;5005190;28;19957;-82
2023/03/11 10:26:33;;;;;;;;;;;;;;;;;;5001850;28;19916;-82
2023/03/11 10:29:09;;;;;;;;;;;;;;;;;;5003096;28;20365;-84
2023/03/11 10:31:40;;;;;;;;;;;;;;;;;;5004357;28;19936;-82
2023/03/11 10:34:24;;;;;;;;;;;;;;;;;;5002747;28;20347;-83
2023/03/11 10:36:56;;;;;;;;;;;;;;;;;;5004572;28;19945;-85
2023/03/11 10:39:21;;;;;;;;;;;;;;;;;;5003581;28;19917;-83
2023/03/11 10:41:52;;;;;;;;;;;;;;;;;;5001623;28;19918;-83
2023/03/11 10:44:32;;;;;;;;;;;;;;;;;;5004070;28;19910;-81
2023/03/11 10:46:58;;;;;;;;;;;;;;;;;;5004953;28;19910;-84
2023/03/11 10:49:23;;;;;;;;;;;;;;;;;;5004327;28;19916;-82
2023/03/11 10:51:49;;;;;;;;;;;;;;;;;;5004799;28;19913;-82
2023/03/11 10:54:21;;;;;;;;;;;;;;;;;;5005489;28;20000;-83
2023/03/11 10:56:49;;;;;;;;;;;;;;;;;;5003644;28;20300;-83
2023/03/11 10:59:25;;;;;;;;;;;;;;;;;;5003452;28;19909;-83
2023/03/11 11:02:00;;;;;;;;;;;;;;;;;;5003197;28;19913;-84
2023/03/11 11:04:27;;;;;;;;;;;;;;;;;;5004022;28;19949;-83
2023/03/11 11:06:52;;;;;;;;;;;;;;;;;;5003365;28;20340;-83
2023/03/11 11:09:19;;;;;;;;;;;;;;;;;;5003065;28;19913;-83
2023/03/11 11:12:02;;;;;;;;;;;;;;;;;;5004652;28;19909;-85
2023/03/11 11:14:40;;;;;;;;;;;;;;;;;;5005076;28;19909;-83
2023/03/11 11:17:12;;;;;;;;;;;;;;;;;;5004360;28;19910;-85
2023/03/11 11:19:42;;;;;;;;;;;;;;;;;;5004172;28;19933;-83
2023/03/11 11:22:15;;;;;;;;;;;;;;;;;;5002050;28;19958;-82
2023/03/11 11:24:55;;;;;;;;;;;;;;;;;;;;;
2023/03/11 11:27:24;;;;;;;;;;;;;;;;;;5004873;28;19973;-83
2023/03/11 11:30:16;;;;;;;;;;;;;;;;;;5004909;28;19916;-83
2023/03/11 11:32:41;;;;;;;;;;;;;;;;;;5005456;28;19961;-84
2023/03/11 11:35:15;;;;;;;;;;;;;;;;;;5016245;28;19908;-84
2023/03/11 11:37:45;;;;;;;;;;;;;;;;;;5018593;28;19936;-84
2023/03/11 11:40:10;;;;;;;;;;;;;;;;;;5017314;28;19928;-82
2023/03/11 11:42:40;;;;;;;;;;;;;;;;;;5017542;28;19941;-82
2023/03/11 11:45:13;;;;;;;;;;;;;;;;;;5014630;28;19921;-84
2023/03/11 11:47:44;;;;;;;;;;;;;;;;;;5004040;28;19914;-85
2023/03/11 11:50:29;;;;;;;;;;;;;;;;;;5005236;28;20380;-83
2023/03/11 11:52:57;;;;;;;;;;;;;;;;;;5003295;28;20361;-82
2023/03/11 11:55:24;;;;;;;;;;;;;;;;;;5004864;28;19917;-85
2023/03/11 11:57:50;;;;;;;;;;;;;;;;;;5005093;28;19914;-82
2023/03/11 12:00:24;;;;;;;;;;;;;;;;;;5005583;28;19910;-83
2023/03/11 12:03:12;;;;;;;;;;;;;;;;;;4987490;28;19925;-84
2023/03/11 12:05:49;;;;;;;;;;;;;;;;;;5009001;28;20001;-83
2023/03/11 12:08:16;;;;;;;;;;;;;;;;;;5008900;28;20004;-83
2023/03/11 12:10:56;;;;;;;;;;;;;;;;;;5020827;28;19944;-84
2023/03/11 12:13:40;;;;;;;;;;;;;;;;;;5018557;28;19921;-84
2023/03/11 12:16:11;;;;;;;;;;;;;;;;;;5018473;28;19974;-84
2023/03/11 12:18:37;;;;;;;;;;;;;;;;;;5019522;28;19916;-83
2023/03/11 12:21:10;;;;;;;;;;;;;;;;;;5019696;28;19969;-82
2023/03/11 12:23:49;;;;;;;;;;;;;;;;;;5013709;28;19989;-84
2023/03/11 12:26:19;;;;;;;;;;;;;;;;;;5007648;28;19910;-84
2023/03/11 12:28:53;;;;;;;;;;;;;;;;;;5007825;28;19936;-85
2023/03/11 12:31:19;;;;;;;;;;;;;;;;;;5007465;28;19916;-83
2023/03/11 12:33:50;;;;;;;;;;;;;;;;;;5007891;28;19917;-83
2023/03/11 12:36:28;;;;;;;;;;;;;;;;;;5009328;28;19933;-85
2023/03/11 12:38:54;;;;;;;;;;;;;;;;;;5008762;28;19909;-84
2023/03/11 12:41:32;;;;;;;;;;;;;;;;;;5008109;28;19917;-82
2023/03/11 12:44:02;;;;;;;;;;;;;;;;;;5009035;28;19916;-85
2023/03/11 12:46:46;;;;;;;;;;;;;;;;;;5008143;28;19982;-85
2023/03/11 12:49:12;;;;;;;;;;;;;;;;;;5007415;28;20319;-83
2023/03/11 12:51:38;;;;;;;;;;;;;;;;;;5007344;28;19917;-84
2023/03/11 12:54:22;;;;;;;;;;;;;;;;;;5007965;28;19909;-82
2023/03/11 12:57:01;;;;;;;;;;;;;;;;;;5009010;28;19910;-84
2023/03/11 12:59:38;;;;;;;;;;;;;;;;;;5009072;28;20376;-83
2023/03/11 13:02:23;;;;;;;;;;;;;;;;;;5008831;28;19920;-82
2023/03/11 13:04:57;;;;;;;;;;;;;;;;;;5006160;28;20020;-83
2023/03/11 13:07:42;;;;;;;;;;;;;;;;;;5007463;28;19910;-83
2023/03/11 13:10:26;;;;;;;;;;;;;;;;;;5006578;28;19910;-83
2023/03/11 13:12:51;;;;;;;;;;;;;;;;;;5006715;28;19968;-83
2023/03/11 13:15:16;;;;;;;;;;;;;;;;;;5004438;28;19913;-81
2023/03/11 13:17:54;;;;;;;;;;;;;;;;;;5006798;28;19909;-84
2023/03/11 13:20:37;;;;;;;;;;;;;;;;;;5005810;28;19918;-84
2023/03/11 13:23:11;;;;;;;;;;;;;;;;;;5006530;28;19914;-84
2023/03/11 13:25:39;;;;;;;;;;;;;;;;;;5004209;28;19913;-82
2023/03/11 13:28:23;;;;;;;;;;;;;;;;;;5005138;28;20012;-82
2023/03/11 13:30:52;;;;;;;;;;;;;;;;;;5005511;28;20004;-84
2023/03/11 13:33:27;;;;;;;;;;;;;;;;;;5007068;28;19910;-82
2023/03/11 13:35:52;;;;;;;;;;;;;;;;;;5008028;28;19917;-83
2023/03/11 13:38:35;;;;;;;;;;;;;;;;;;5003787;28;19913;-83
2023/03/11 13:41:02;;;;;;;;;;;;;;;;;;5001994;28;19917;-84
2023/03/11 13:43:27;;;;;;;;;;;;;;;;;;5002859;28;19910;-84
2023/03/11 13:46:11;;;;;;;;;;;;;;;;;;5004773;28;19916;-84
2023/03/11 13:48:40;;;;;;;;;;;;;;;;;;5004037;28;19910;-84
2023/03/11 13:51:31;;;;;;;;;;;;;;;;;;5004923;28;19940;-82
2023/03/11 13:54:00;;;;;;;;;;;;;;;;;;5006208;28;19914;-84
2023/03/11 13:56:26;;;;;;;;;;;;;;;;;;5004760;28;20282;-83
2023/03/11 13:58:52;;;;;;;;;;;;;;;;;;5005321;28;19917;-82
2023/03/11 14:01:17;;;;;;;;;;;;;;;;;;5005450;28;19914;-82
2023/03/11 14:03:44;;;;;;;;;;;;;;;;;;5004799;28;19948;-83
2023/03/11 14:06:14;;;;;;;;;;;;;;;;;;5005906;28;19921;-82
2023/03/11 14:08:39;;;;;;;;;;;;;;;;;;5004063;28;19917;-84
2023/03/11 14:11:09;;;;;;;;;;;;;;;;;;5002684;28;19924;-84
2023/03/11 14:13:39;;;;;;;;;;;;;;;;;;5000842;28;20300;-83
2023/03/11 14:16:07;;;;;;;;;;;;;;;;;;5007903;28;19917;-83
2023/03/11 14:18:32;;;;;;;;;;;;;;;;;;5019203;28;19941;-84
2023/03/11 14:20:57;;;;;;;;;;;;;;;;;;5018592;28;19910;-82
2023/03/11 14:23:25;;;;;;;;;;;;;;;;;;5018681;28;19901;-81
2023/03/11 14:25:58;;;;;;;;;;;;;;;;;;5019123;28;19921;-82
2023/03/11 14:28:32;;;;;;;;;;;;;;;;;;5006438;28;19918;-82
2023/03/11 14:30:58;;;;;;;;;;;;;;;;;;4998616;28;19914;-83
2023/03/11 14:33:24;;;;;;;;;;;;;;;;;;4998625;28;19963;-82
2023/03/11 14:35:53;;;;;;;;;;;;;;;;;;4998887;28;19973;-82
2023/03/11 14:38:19;;;;;;;;;;;;;;;;;;5001628;28;19960;-82
2023/03/11 14:40:48;;;;;;;;;;;;;;;;;;5001419;28;19960;-82
2023/03/11 14:43:14;;;;;;;;;;;;;;;;;;4999719;28;19970;-82
2023/03/11 14:45:39;;;;;;;;;;;;;;;;;;5002173;28;19941;-84
2023/03/11 14:48:09;;;;;;;;;;;;;;;;;;5001263;28;19952;-84
2023/03/11 14:50:35;;;;;;;;;;;;;;;;;;5002302;28;19917;-84
2023/03/11 14:53:18;;;;;;;;;;;;;;;;;;5001161;28;19910;-82
2023/03/11 14:56:04;;;;;;;;;;;;;;;;;;5001493;28;19910;-83
2023/03/11 14:58:40;;;;;;;;;;;;;;;;;;5000304;28;19921;-84
2023/03/11 15:01:09;;;;;;;;;;;;;;;;;;4999145;28;19914;-83
2023/03/11 15:03:36;;;;;;;;;;;;;;;;;;5002493;28;20321;-83
2023/03/11 15:06:04;;;;;;;;;;;;;;;;;;5001722;28;19910;-83
2023/03/11 15:08:32;;;;;;;;;;;;;;;;;;5002462;28;19916;-84
2023/03/11 15:11:06;;;;;;;;;;;;;;;;;;4999195;28;20292;-84
2023/03/11 15:13:32;;;;;;;;;;;;;;;;;;5001514;28;19922;-84
2023/03/11 15:15:58;;;;;;;;;;;;;;;;;;5002250;28;19917;-83
2023/03/11 15:18:25;;;;;;;;;;;;;;;;;;5001520;28;20324;-84
2023/03/11 15:21:01;;;;;;;;;;;;;;;;;;4965976;28;1014012;-84
2023/03/11 15:23:26;;;;;;;;;;;;;;;;;;4999988;28;19914;-84
2023/03/11 15:25:52;;;;;;;;;;;;;;;;;;5000670;28;20296;-83
2023/03/11 15:28:20;;;;;;;;;;;;;;;;;;5001854;28;19910;-83
2023/03/11 15:30:45;;;;;;;;;;;;;;;;;;5000851;28;19949;-84
2023/03/11 15:33:30;;;;;;;;;;;;;;;;;;5001018;28;19909;-83
2023/03/11 15:35:55;;;;;;;;;;;;;;;;;;5002487;28;19910;-85
2023/03/11 15:38:24;;;;;;;;;;;;;;;;;;4999916;28;19935;-83
2023/03/11 15:41:02;;;;;;;;;;;;;;;;;;5004581;28;19990;-83
2023/03/11 15:43:29;;;;;;;;;;;;;;;;;;5005970;28;19921;-83
2023/03/11 15:45:55;;;;;;;;;;;;;;;;;;5005961;28;19910;-83
2023/03/11 15:48:21;;;;;;;;;;;;;;;;;;5005354;28;19941;-83
2023/03/11 15:50:53;;;;;;;;;;;;;;;;;;5005712;28;19910;-82
2023/03/11 15:53:18;;;;;;;;;;;;;;;;;;5006012;28;19933;-84
2023/03/11 15:55:44;;;;;;;;;;;;;;;;;;5005071;28;19909;-83
2023/03/11 15:58:10;;;;;;;;;;;;;;;;;;5004978;28;19963;-83
2023/03/11 16:00:35;;;;;;;;;;;;;;;;;;5005522;28;19980;-84
2023/03/11 16:03:01;;;;;;;;;;;;;;;;;;5004319;28;20419;-83
2023/03/11 16:05:29;;;;;;;;;;;;;;;;;;5006093;28;19909;-84
2023/03/11 16:07:54;;;;;;;;;;;;;;;;;;5003987;28;19960;-84
2023/03/11 16:10:20;;;;;;;;;;;;;;;;;;5004630;28;19909;-83
2023/03/11 16:12:46;;;;;;;;;;;;;;;;;;5006545;28;20008;-83
2023/03/11 16:15:20;;;;;;;;;;;;;;;;;;5005484;28;19910;-82
2023/03/11 16:17:46;;;;;;;;;;;;;;;;;;5004593;28;19910;-83
2023/03/11 16:20:11;;;;;;;;;;;;;;;;;;5005448;28;19944;-84
2023/03/11 16:22:37;;;;;;;;;;;;;;;;;;5003691;28;19914;-84
2023/03/11 16:25:02;;;;;;;;;;;;;;;;;;5005411;28;19910;-84
2023/03/11 16:27:28;;;;;;;;;;;;;;;;;;5005151;28;19913;-82
2023/03/11 16:29:53;;;;;;;;;;;;;;;;;;5004734;28;19952;-83
2023/03/11 16:32:18;;;;;;;;;;;;;;;;;;5006590;28;19913;-83
2023/03/11 16:34:43;;;;;;;;;;;;;;;;;;5006155;28;19917;-83
2023/03/11 16:37:12;;;;;;;;;;;;;;;;;;5005248;28;19920;-83
2023/03/11 16:39:38;;;;;;;;;;;;;;;;;;5005487;28;19982;-84
2023/03/11 16:42:03;;;;;;;;;;;;;;;;;;5006830;28;19913;-83
2023/03/11 16:44:28;;;;;;;;;;;;;;;;;;5006095;28;19992;-84
2023/03/11 16:46:53;;;;;;;;;;;;;;;;;;5006005;28;19910;-83
2023/03/11 16:49:19;;;;;;;;;;;;;;;;;;5005072;28;19916;-83
2023/03/11 16:51:44;;;;;;;;;;;;;;;;;;5003614;28;20300;-83